Time;durP1;ratioP1;P1;durP2;ratioP2;P2;SDS_P1;SDS_P2;PMS_P1;PMS_P2;Temp;Humidity;BMP_temperature;BMP_pressure;BME280_temperature;BME280_humidity;BME280_pressure;Samples;Min_cycle;Max_cycle;Signal;HPM_P1;HPM_P2
2021/07/13 00:00:19;;;;;;;1.83;1.20;;;24.70;63.70;;;;;;5072800;28;20052;-44
2021/07/13 00:02:45;;;;;;;;;;;24.70;63.70;;;;;;5074395;28;20073;-45
2021/07/13 00:05:19;;;;;;;1.52;1.30;;;24.60;63.60;;;;;;5071673;28;19905;-46
2021/07/13 00:07:46;;;;;;;2.47;1.63;;;24.70;63.60;;;;;;5055096;28;20351;-45
2021/07/13 00:10:14;;;;;;;3.20;1.67;;;24.60;63.50;;;;;;5072586;28;20032;-44
2021/07/13 00:12:41;;;;;;;2.58;1.40;;;24.60;63.50;;;;;;5072750;28;20470;-44
2021/07/13 00:15:12;;;;;;;1.45;1.20;;;24.70;63.50;;;;;;5071093;28;20029;-46
2021/07/13 00:17:38;;;;;;;3.72;1.52;;;24.70;63.40;;;;;;5071662;28;20016;-44
2021/07/13 00:20:05;;;;;;;2.22;1.17;;;24.70;63.40;;;;;;5071586;28;20025;-44
2021/07/13 00:22:31;;;;;;;1.77;1.20;;;24.60;63.30;;;;;;5072871;28;20035;-44
2021/07/13 00:24:57;;;;;;;1.58;1.30;;;24.70;63.40;;;;;;5072463;28;20029;-67
2021/07/13 00:27:22;;;;;;;1.80;1.40;;;24.70;63.30;;;;;;5072297;28;20029;-45
2021/07/13 00:29:48;;;;;;;1.75;1.33;;;24.70;63.30;;;;;;5054638;28;20039;-45
2021/07/13 00:32:14;;;;;;;1.65;1.10;;;24.70;63.30;;;;;;5071899;28;20619;-47
2021/07/13 00:34:40;;;;;;;2.70;1.08;;;24.70;63.30;;;;;;5072501;28;20020;-44
2021/07/13 00:37:05;;;;;;;1.60;1.10;;;24.70;63.30;;;;;;5071753;28;20116;-44
2021/07/13 00:39:31;;;;;;;1.60;1.30;;;24.70;63.30;;;;;;5072125;28;20031;-44
2021/07/13 00:41:56;;;;;;;1.10;1.00;;;24.70;63.30;;;;;;5072017;28;20064;-63
2021/07/13 00:44:23;;;;;;;1.67;1.10;;;24.70;63.30;;;;;;5071852;28;20107;-44
2021/07/13 00:46:49;;;;;;;1.10;1.00;;;24.70;63.30;;;;;;5072133;28;20487;-44
2021/07/13 00:49:17;;;;;;;1.50;1.20;;;24.60;63.30;;;;;;5071124;28;20036;-44
2021/07/13 00:51:46;;;;;;;1.58;1.15;;;24.60;63.20;;;;;;5072256;28;20047;-44
2021/07/13 00:54:12;;;;;;;1.35;1.05;;;24.60;63.30;;;;;;5071446;28;20040;-44
2021/07/13 00:56:41;;;;;;;1.48;1.00;;;24.60;63.30;;;;;;5072350;28;20029;-44
2021/07/13 00:59:06;;;;;;;0.90;0.80;;;24.60;63.20;;;;;;5070396;28;20028;-44
2021/07/13 01:01:33;;;;;;;1.38;1.10;;;24.60;63.20;;;;;;5072638;28;20044;-44
2021/07/13 01:04:01;;;;;;;1.13;1.00;;;24.60;63.20;;;;;;5071812;28;20024;-66
2021/07/13 01:06:56;;;;;;;1.15;0.90;;;24.60;63.30;;;;;;5071692;28;20069;-44
2021/07/13 01:09:46;;;;;;;1.48;0.90;;;24.60;63.20;;;;;;5070969;28;20028;-44
2021/07/13 01:12:43;;;;;;;1.65;1.10;;;24.60;63.20;;;;;;5071315;28;20457;-44
2021/07/13 01:15:10;;;;;;;1.45;1.30;;;24.60;63.20;;;;;;5069574;28;20045;-44
2021/07/13 01:17:48;;;;;;;1.85;1.08;;;24.60;63.20;;;;;;5072133;28;20028;-44
2021/07/13 01:20:59;;;;;;;1.17;0.90;;;24.60;63.20;;;;;;5070974;28;20028;-44
2021/07/13 01:23:28;;;;;;;2.15;0.93;;;24.60;63.10;;;;;;5072355;28;20036;-43
2021/07/13 01:26:08;;;;;;;2.42;1.20;;;24.60;63.20;;;;;;5071923;28;20029;-44
2021/07/13 01:28:42;;;;;;;1.58;1.10;;;24.60;63.20;;;;;;5071670;28;20055;-44
2021/07/13 01:31:11;;;;;;;1.80;1.00;;;24.60;63.20;;;;;;5071139;28;20025;-44
2021/07/13 01:33:39;;;;;;;1.83;1.25;;;24.60;63.20;;;;;;5071834;28;20113;-44
2021/07/13 01:36:13;;;;;;;1.30;1.02;;;24.60;63.20;;;;;;5070821;28;20040;-44
2021/07/13 01:38:41;;;;;;;1.63;1.20;;;24.60;63.20;;;;;;5071763;28;20470;-49
2021/07/13 01:41:18;;;;;;;1.10;1.00;;;24.60;63.20;;;;;;5052937;28;20470;-46
2021/07/13 01:43:45;;;;;;;1.15;0.95;;;24.60;63.20;;;;;;5071588;28;20028;-44
2021/07/13 01:46:12;;;;;;;1.30;1.00;;;24.60;63.20;;;;;;5052970;28;20031;-44
2021/07/13 01:48:39;;;;;;;1.23;0.80;;;24.60;63.20;;;;;;5071825;28;20098;-45
2021/07/13 01:51:06;;;;;;;1.25;1.05;;;24.60;63.20;;;;;;5070649;28;20028;-44
2021/07/13 01:53:32;;;;;;;1.63;0.93;;;24.60;63.30;;;;;;5071184;28;20542;-44
2021/07/13 01:55:59;;;;;;;1.27;0.90;;;24.60;63.20;;;;;;5071055;28;20028;-63
2021/07/13 01:58:27;;;;;;;1.20;0.93;;;24.60;63.30;;;;;;5071044;28;20040;-44
2021/07/13 02:00:57;;;;;;;2.33;0.98;;;24.60;63.20;;;;;;5071462;28;20385;-48
2021/07/13 02:03:24;;;;;;;2.08;0.90;;;24.60;63.30;;;;;;5053049;28;20033;-44
2021/07/13 02:05:52;;;;;;;1.35;1.10;;;24.60;63.30;;;;;;5071521;28;20016;-44
2021/07/13 02:08:20;;;;;;;1.48;0.90;;;24.60;63.30;;;;;;5070492;28;20508;-44
2021/07/13 02:10:46;;;;;;;1.80;0.88;;;24.60;63.30;;;;;;5074752;28;20453;-44
2021/07/13 02:13:13;;;;;;;1.38;0.85;;;24.60;63.30;;;;;;5074258;28;20027;-44
2021/07/13 02:15:39;;;;;;;2.38;0.90;;;24.60;63.30;;;;;;5075277;28;20029;-44
2021/07/13 02:18:05;;;;;;;1.63;0.98;;;24.60;63.30;;;;;;5074598;28;20473;-44
2021/07/13 02:20:31;;;;;;;1.25;1.00;;;24.60;63.30;;;;;;5074954;28;20486;-44
2021/07/13 02:22:56;;;;;;;1.38;1.10;;;24.60;63.30;;;;;;5074889;28;20090;-46
2021/07/13 02:25:22;;;;;;;1.02;0.82;;;24.60;63.30;;;;;;5074290;28;20118;-46
2021/07/13 02:28:08;;;;;;;2.15;1.10;;;24.60;63.30;;;;;;5057081;28;20115;-44
2021/07/13 02:30:36;;;;;;;1.23;0.80;;;24.60;63.30;;;;;;5074112;28;20036;-44
2021/07/13 02:33:12;;;;;;;1.52;0.90;;;24.60;63.30;;;;;;5074299;28;20059;-63
2021/07/13 02:35:44;;;;;;;1.17;0.80;;;24.60;63.30;;;;;;5074962;28;20495;-44
2021/07/13 02:38:10;;;;;;;1.25;1.08;;;24.60;63.30;;;;;;5074108;28;20024;-48
2021/07/13 02:40:36;;;;;;;2.70;0.80;;;24.60;63.30;;;;;;5074708;28;20020;-44
2021/07/13 02:43:05;;;;;;;1.27;0.98;;;24.60;63.30;;;;;;5074197;28;20121;-67
2021/07/13 02:45:32;;;;;;;1.65;0.90;;;24.60;63.30;;;;;;5074788;28;20024;-45
2021/07/13 02:47:59;;;;;;;1.60;0.70;;;24.60;63.30;;;;;;5074434;28;20500;-44
2021/07/13 02:50:27;;;;;;;1.90;0.88;;;24.60;63.40;;;;;;5073760;28;20470;-45
2021/07/13 02:52:54;;;;;;;1.20;0.82;;;24.60;63.30;;;;;;5074653;28;20024;-43
2021/07/13 02:55:21;;;;;;;1.63;0.90;;;24.60;63.30;;;;;;5073631;28;20082;-44
2021/07/13 02:57:49;;;;;;;1.33;0.95;;;24.60;63.30;;;;;;5074408;28;20038;-43
2021/07/13 03:00:17;;;;;;;1.98;1.00;;;24.60;63.40;;;;;;5073566;28;20386;-45
2021/07/13 03:02:48;;;;;;;1.08;0.65;;;24.60;63.50;;;;;;5074378;28;20039;-44
2021/07/13 03:05:16;;;;;;;1.65;0.85;;;24.60;63.40;;;;;;5074112;28;20036;-45
2021/07/13 03:07:43;;;;;;;1.17;0.80;;;24.60;63.30;;;;;;5074310;28;20052;-47
2021/07/13 03:10:10;;;;;;;1.30;0.88;;;24.60;63.30;;;;;;5072876;28;20044;-44
2021/07/13 03:12:36;;;;;;;1.75;0.80;;;24.60;63.30;;;;;;5074372;28;20032;-48
2021/07/13 03:15:03;;;;;;;2.88;0.82;;;24.60;63.40;;;;;;5073747;28;20036;-63
2021/07/13 03:17:29;;;;;;;2.88;0.98;;;24.60;63.50;;;;;;5074055;28;20036;-47
2021/07/13 03:19:55;;;;;;;1.30;1.20;;;24.60;63.40;;;;;;5074542;28;20469;-47
2021/07/13 03:22:45;;;;;;;1.98;0.70;;;24.60;63.30;;;;;;5072136;28;20113;-45
2021/07/13 03:25:16;;;;;;;1.58;0.70;;;24.60;63.30;;;;;;5073240;28;20043;-44
2021/07/13 03:27:43;;;;;;;2.22;0.75;;;24.60;63.40;;;;;;5074107;28;20027;-46
2021/07/13 03:30:09;;;;;;;1.42;0.80;;;24.60;63.40;;;;;;5072679;28;20120;-44
2021/07/13 03:32:36;;;;;;;1.13;1.02;;;24.60;63.50;;;;;;5073125;28;20040;-45
2021/07/13 03:35:04;;;;;;;3.05;1.10;;;24.60;63.40;;;;;;5073579;28;20397;-66
2021/07/13 03:37:31;;;;;;;1.60;0.73;;;24.50;63.40;;;;;;5073782;28;20028;-46
2021/07/13 03:39:57;;;;;;;2.40;1.10;;;24.60;63.40;;;;;;5073637;28;20036;-47
2021/07/13 03:42:24;;;;;;;2.50;1.10;;;24.60;63.40;;;;;;5072311;28;20077;-49
2021/07/13 03:44:50;;;;;;;1.60;0.80;;;24.60;63.50;;;;;;5073739;28;20059;-49
2021/07/13 03:47:18;;;;;;;1.05;0.80;;;24.60;63.50;;;;;;5072510;28;20052;-46
2021/07/13 03:49:46;;;;;;;1.05;0.68;;;24.60;63.50;;;;;;5073709;28;20078;-46
2021/07/13 03:52:13;;;;;;;1.70;0.95;;;24.60;63.50;;;;;;5072369;28;20368;-48
2021/07/13 03:54:39;;;;;;;2.10;0.95;;;24.60;63.50;;;;;;5055548;28;20385;-46
2021/07/13 03:57:05;;;;;;;1.42;0.77;;;24.60;63.50;;;;;;5072668;28;20090;-65
2021/07/13 03:59:31;;;;;;;1.38;0.70;;;24.50;63.40;;;;;;5055085;28;20443;-46
2021/07/13 04:01:57;;;;;;;2.75;0.80;;;24.50;63.40;;;;;;5073388;28;20032;-48
2021/07/13 04:04:23;;;;;;;1.40;0.80;;;24.60;63.50;;;;;;5072176;28;20028;-47
2021/07/13 04:06:48;;;;;;;2.05;0.80;;;24.50;63.50;;;;;;5073070;28;20025;-46
2021/07/13 04:09:14;;;;;;;1.35;0.90;;;24.60;63.60;;;;;;5072360;28;20028;-49
2021/07/13 04:11:39;;;;;;;1.92;0.88;;;24.60;63.50;;;;;;5072817;28;20028;-46
2021/07/13 04:14:05;;;;;;;2.58;1.25;;;24.60;63.60;;;;;;5072588;28;20032;-52
2021/07/13 04:16:31;;;;;;;1.02;0.70;;;24.50;63.50;;;;;;5072812;28;20071;-46
2021/07/13 04:18:58;;;;;;;1.17;0.88;;;24.60;63.60;;;;;;5054307;28;20067;-49
2021/07/13 04:21:23;;;;;;;1.45;0.73;;;24.60;63.70;;;;;;5072082;28;20634;-48
2021/07/13 04:23:49;;;;;;;1.98;0.90;;;24.60;63.70;;;;;;5072588;28;20107;-46
2021/07/13 04:26:15;;;;;;;2.25;0.90;;;24.60;63.60;;;;;;5071635;28;20390;-45
2021/07/13 04:28:41;;;;;;;2.60;1.05;;;24.50;63.60;;;;;;5054778;28;20040;-46
2021/07/13 04:31:06;;;;;;;2.35;0.93;;;24.60;63.80;;;;;;5071807;28;20029;-44
2021/07/13 04:33:32;;;;;;;2.00;0.80;;;24.60;63.70;;;;;;5054397;28;20028;-44
2021/07/13 04:35:58;;;;;;;1.83;0.70;;;24.60;63.60;;;;;;5072585;28;20025;-43
2021/07/13 04:38:24;;;;;;;1.02;0.70;;;24.50;63.70;;;;;;5071799;28;20190;-43
2021/07/13 04:40:50;;;;;;;2.65;1.10;;;24.50;63.70;;;;;;5054609;28;20025;-45
2021/07/13 04:43:16;;;;;;;0.88;0.60;;;24.60;63.70;;;;;;5071428;28;20036;-43
2021/07/13 04:45:41;;;;;;;1.95;0.98;;;24.60;63.80;;;;;;5072487;28;20021;-43
2021/07/13 04:48:07;;;;;;;2.70;0.95;;;24.60;63.80;;;;;;5071642;28;20078;-44
2021/07/13 04:50:33;;;;;;;1.67;0.95;;;24.50;63.70;;;;;;5072353;28;20466;-45
2021/07/13 04:52:59;;;;;;;2.28;1.10;;;24.60;63.70;;;;;;5054294;28;20039;-45
2021/07/13 04:55:24;;;;;;;0.80;0.70;;;24.60;63.70;;;;;;5070979;28;20052;-44
2021/07/13 04:57:50;;;;;;;1.05;0.82;;;24.60;63.80;;;;;;5071701;28;20028;-43
2021/07/13 05:00:16;;;;;;;1.02;0.90;;;24.60;63.70;;;;;;5071008;28;20071;-44
2021/07/13 05:02:42;;;;;;;1.20;0.80;;;24.50;63.80;;;;;;5069006;28;20079;-45
2021/07/13 05:05:10;;;;;;;1.65;0.90;;;24.60;63.80;;;;;;5071245;28;20447;-44
2021/07/13 05:07:43;;;;;;;1.08;0.85;;;24.60;63.90;;;;;;5071771;28;20040;-42
2021/07/13 05:10:10;;;;;;;1.95;0.80;;;24.60;63.80;;;;;;5051360;28;20047;-43
2021/07/13 05:12:39;;;;;;;3.35;1.10;;;24.60;64.00;;;;;;5051804;28;20044;-44
2021/07/13 05:15:07;;;;;;;11.35;1.20;;;24.70;63.90;;;;;;5051387;28;20694;-60
2021/07/13 05:17:32;;;;;;;10.20;1.30;;;24.70;63.90;;;;;;5051906;28;20108;-46
2021/07/13 05:19:58;;;;;;;6.63;1.40;;;24.70;64.00;;;;;;5051963;28;20414;-45
2021/07/13 05:22:23;;;;;;;5.38;1.98;;;24.70;63.90;;;;;;5051004;28;20625;-48
2021/07/13 05:24:49;;;;;;;8.15;1.13;;;24.70;63.90;;;;;;5050813;28;20397;-46
2021/07/13 05:27:18;;;;;;;6.82;1.27;;;24.80;63.90;;;;;;5049960;28;20025;-44
2021/07/13 05:29:44;;;;;;;7.35;2.53;;;24.80;63.90;;;;;;5051554;28;20056;-43
2021/07/13 05:32:09;;;;;;;28.67;3.28;;;24.70;64.00;;;;;;5057006;28;20462;-46
2021/07/13 05:34:35;;;;;;;9.20;1.35;;;24.70;64.10;;;;;;5071524;28;20029;-43
2021/07/13 05:37:01;;;;;;;16.10;1.80;;;24.60;64.70;;;;;;5071937;28;20095;-43
2021/07/13 05:39:26;;;;;;;12.07;1.60;;;24.70;65.40;;;;;;5070718;28;20020;-43
2021/07/13 05:41:55;;;;;;;6.18;1.55;;;24.70;65.90;;;;;;5071688;28;20028;-44
2021/07/13 05:44:20;;;;;;;12.57;1.50;;;24.70;65.30;;;;;;5072006;28;20031;-43
2021/07/13 05:46:46;;;;;;;8.00;1.73;;;24.60;65.50;;;;;;5076063;28;20369;-44
2021/07/13 05:49:12;;;;;;;5.30;1.70;;;24.70;65.60;;;;;;5074945;28;20029;-43
2021/07/13 05:51:37;;;;;;;3.30;1.17;;;24.60;65.60;;;;;;5076265;28;20446;-43
2021/07/13 05:54:03;;;;;;;9.35;1.60;;;24.60;65.70;;;;;;5075817;28;20029;-44
2021/07/13 05:56:28;;;;;;;8.73;1.25;;;24.60;66.50;;;;;;5075147;28;20028;-43
2021/07/13 05:58:54;;;;;;;8.88;1.60;;;24.60;66.00;;;;;;5075090;28;20044;-43
2021/07/13 06:01:20;;;;;;;9.35;1.73;;;24.60;66.00;;;;;;5074089;28;20052;-43
2021/07/13 06:03:45;;;;;;;5.53;1.27;;;24.60;66.10;;;;;;5075350;28;20032;-43
2021/07/13 06:06:11;;;;;;;5.88;1.80;;;24.60;66.00;;;;;;5074377;28;20105;-44
2021/07/13 06:08:37;;;;;;;3.80;1.00;;;24.60;65.90;;;;;;5075008;28;20098;-43
2021/07/13 06:11:02;;;;;;;5.68;1.30;;;24.60;65.80;;;;;;5075325;28;20024;-43
2021/07/13 06:13:28;;;;;;;8.10;1.60;;;24.60;65.80;;;;;;5056493;28;20036;-43
2021/07/13 06:15:53;;;;;;;4.63;1.50;;;24.60;65.80;;;;;;5075844;28;20028;-44
2021/07/13 06:18:20;;;;;;;6.18;1.67;;;24.60;65.80;;;;;;5073188;28;20044;-50
2021/07/13 06:20:46;;;;;;;6.50;2.45;;;24.60;65.80;;;;;;5074981;28;20097;-44
2021/07/13 06:23:12;;;;;;;4.55;1.80;;;24.60;65.70;;;;;;5074375;28;20024;-43
2021/07/13 06:25:37;;;;;;;2.92;1.20;;;24.60;65.70;;;;;;5074623;28;20385;-49
2021/07/13 06:28:03;;;;;;;5.93;1.90;;;24.60;65.90;;;;;;5074623;28;20153;-49
2021/07/13 06:30:29;;;;;;;5.53;2.15;;;24.60;65.80;;;;;;5074259;28;20027;-44
2021/07/13 06:32:55;;;;;;;6.05;1.58;;;24.60;65.90;;;;;;5074800;28;20029;-47
2021/07/13 06:35:20;;;;;;;2.85;1.38;;;24.50;65.90;;;;;;5074176;28;20047;-49
2021/07/13 06:37:46;;;;;;;4.43;1.67;;;24.60;65.90;;;;;;5074767;28;20055;-47
2021/07/13 06:40:12;;;;;;;3.53;1.20;;;24.60;65.90;;;;;;5073931;28;20031;-43
2021/07/13 06:42:38;;;;;;;3.65;1.02;;;24.60;65.90;;;;;;5074857;28;20032;-46
2021/07/13 06:45:05;;;;;;;3.22;1.15;;;24.60;65.90;;;;;;5074903;28;20528;-47
2021/07/13 06:47:31;;;;;;;3.67;1.13;;;24.50;66.00;;;;;;5074775;28;20025;-49
2021/07/13 06:49:57;;;;;;;4.22;1.67;;;24.60;66.00;;;;;;5057437;28;20082;-46
2021/07/13 06:52:22;;;;;;;4.07;1.08;;;24.60;66.00;;;;;;5074736;28;20035;-47
2021/07/13 06:54:48;;;;;;;4.32;1.63;;;24.60;65.90;;;;;;5074934;28;20060;-43
2021/07/13 06:57:13;;;;;;;5.53;1.40;;;24.60;66.00;;;;;;5074375;28;20020;-43
2021/07/13 06:59:39;;;;;;;2.58;0.95;;;24.60;66.10;;;;;;5074773;28;20079;-44
2021/07/13 07:02:05;;;;;;;3.13;1.40;;;24.60;65.90;;;;;;5075168;28;20052;-43
2021/07/13 07:04:31;;;;;;;2.08;0.80;;;24.60;65.90;;;;;;5074608;28;20035;-43
2021/07/13 07:06:57;;;;;;;3.13;1.02;;;24.60;65.90;;;;;;5056696;28;20044;-48
2021/07/13 07:09:23;;;;;;;4.10;1.33;;;24.60;65.90;;;;;;5074040;28;20078;-44
2021/07/13 07:11:49;;;;;;;2.38;1.10;;;24.60;65.90;;;;;;5075017;28;20024;-45
2021/07/13 07:14:14;;;;;;;3.88;1.30;;;24.60;65.80;;;;;;5073595;28;20024;-47
2021/07/13 07:16:40;;;;;;;1.30;0.93;;;24.60;65.70;;;;;;5074473;28;20039;-47
2021/07/13 07:19:06;;;;;;;1.17;0.80;;;24.60;65.70;;;;;;5074608;28;20037;-47
2021/07/13 07:21:31;;;;;;;2.28;0.93;;;24.60;65.70;;;;;;5074532;28;20036;-46
2021/07/13 07:23:57;;;;;;;2.15;0.95;;;24.60;65.70;;;;;;5074323;28;20037;-46
2021/07/13 07:26:23;;;;;;;4.13;1.00;;;24.60;65.70;;;;;;5073905;28;20024;-46
2021/07/13 07:28:48;;;;;;;2.08;1.08;;;24.60;65.70;;;;;;5074252;28;20478;-46
2021/07/13 07:31:19;;;;;;;2.28;1.52;;;24.60;65.70;;;;;;5073252;28;20043;-49
2021/07/13 07:33:45;;;;;;;2.55;1.05;;;24.50;65.60;;;;;;5074477;28;20037;-45
2021/07/13 07:36:11;;;;;;;2.75;1.20;;;24.50;65.70;;;;;;5073601;28;20386;-44
2021/07/13 07:38:36;;;;;;;3.97;0.90;;;24.50;65.70;;;;;;5074430;28;20162;-49
2021/07/13 07:41:02;;;;;;;3.10;1.08;;;24.50;65.70;;;;;;5074145;28;20025;-44
2021/07/13 07:43:28;;;;;;;2.95;1.00;;;24.50;65.70;;;;;;5073540;28;20028;-47
2021/07/13 07:45:53;;;;;;;3.83;0.90;;;24.50;65.80;;;;;;5073955;28;20024;-43
2021/07/13 07:48:19;;;;;;;1.85;1.00;;;24.50;65.90;;;;;;5073446;28;20359;-43
2021/07/13 07:50:45;;;;;;;6.63;1.45;;;24.50;65.90;;;;;;5073886;28;20078;-43
2021/07/13 07:53:10;;;;;;;1.90;1.00;;;24.50;65.80;;;;;;5073475;28;20028;-43
2021/07/13 07:55:36;;;;;;;2.60;1.30;;;24.60;65.80;;;;;;5068442;28;20100;-45
2021/07/13 07:58:02;;;;;;;2.47;0.90;;;24.50;65.70;;;;;;5065753;28;20094;-63
2021/07/13 08:00:27;;;;;;;3.67;1.30;;;24.50;65.80;;;;;;5068748;28;20044;-50
2021/07/13 08:02:53;;;;;;;1.20;1.10;;;24.50;65.80;;;;;;5075577;28;20087;-45
2021/07/13 08:05:19;;;;;;;2.53;1.20;;;24.50;65.70;;;;;;5069819;28;20028;-49
2021/07/13 08:07:46;;;;;;;2.15;1.10;;;24.50;65.80;;;;;;5061601;28;20056;-45
2021/07/13 08:10:14;;;;;;;2.92;0.90;;;24.50;65.70;;;;;;5065614;28;20037;-57
2021/07/13 08:12:42;;;;;;;1.77;0.90;;;24.50;65.60;;;;;;5060822;28;20105;-45
2021/07/13 08:15:08;;;;;;;1.92;0.90;;;24.50;65.60;;;;;;5056445;28;20536;-61
2021/07/13 08:17:34;;;;;;;1.35;0.80;;;24.60;65.60;;;;;;5071359;28;20477;-50
2021/07/13 08:20:00;;;;;;;2.78;1.00;;;24.60;65.60;;;;;;5072778;28;20701;-45
2021/07/13 08:22:26;;;;;;;2.30;1.08;;;24.50;65.60;;;;;;5069165;28;20035;-48
2021/07/13 08:24:52;;;;;;;1.17;0.90;;;24.60;65.70;;;;;;5058985;28;20035;-44
2021/07/13 08:27:18;;;;;;;2.97;1.25;;;24.60;65.70;;;;;;5058764;28;20029;-45
2021/07/13 08:29:43;;;;;;;2.20;1.00;;;24.60;65.70;;;;;;5076114;28;20110;-44
2021/07/13 08:32:09;;;;;;;1.88;1.08;;;24.60;65.60;;;;;;5063685;28;20090;-64
2021/07/13 08:34:35;;;;;;;2.17;1.10;;;24.60;65.70;;;;;;5069673;28;20081;-44
2021/07/13 08:37:02;;;;;;;1.50;1.10;;;24.60;65.70;;;;;;5060812;28;20496;-45
2021/07/13 08:39:28;;;;;;;1.50;0.93;;;24.60;65.70;;;;;;5067883;28;20028;-44
2021/07/13 08:41:54;;;;;;;1.77;1.00;;;24.60;65.70;;;;;;5054949;28;20187;-44
2021/07/13 08:44:19;;;;;;;2.30;1.10;;;24.60;65.70;;;;;;5070548;28;20039;-44
2021/07/13 08:46:45;;;;;;;2.28;1.00;;;24.60;65.70;;;;;;5067353;28;20021;-46
2021/07/13 08:49:13;;;;;;;5.45;1.17;;;24.60;65.70;;;;;;5062083;28;20185;-65
2021/07/13 08:51:40;;;;;;;2.65;0.98;;;24.60;65.70;;;;;;5069284;28;20107;-45
2021/07/13 08:54:07;;;;;;;2.85;1.17;;;24.60;65.70;;;;;;5091055;28;20378;-45
2021/07/13 08:56:35;;;;;;;2.47;1.10;;;24.60;65.70;;;;;;5091282;28;20028;-45
2021/07/13 08:59:02;;;;;;;2.38;1.02;;;24.60;65.70;;;;;;5060237;28;20028;-47
2021/07/13 09:01:28;;;;;;;1.88;1.13;;;24.60;65.70;;;;;;5092077;28;20044;-54
2021/07/13 09:03:56;;;;;;;2.80;1.02;;;24.60;65.60;;;;;;5091684;28;20479;-48
2021/07/13 09:06:23;;;;;;;3.03;1.33;;;24.60;65.70;;;;;;5070724;28;20029;-48
2021/07/13 09:08:49;;;;;;;1.95;1.00;;;24.60;65.70;;;;;;5058363;28;20779;-45
2021/07/13 09:11:20;;;;;;;2.45;1.00;;;24.60;65.60;;;;;;5055687;28;20056;-45
2021/07/13 09:13:59;;;;;;;1.23;1.00;;;24.60;65.70;;;;;;5075324;28;20128;-45
2021/07/13 09:16:29;;;;;;;1.45;0.90;;;24.60;65.80;;;;;;5062650;28;20033;-44
2021/07/13 09:18:56;;;;;;;2.22;1.13;;;24.60;65.80;;;;;;5062160;28;20135;-44
2021/07/13 09:21:32;;;;;;;3.90;2.55;;;24.50;65.90;;;;;;5061475;28;20501;-44
2021/07/13 09:24:16;;;;;;;3.15;1.60;;;24.50;65.80;;;;;;5052825;28;20039;-47
2021/07/13 09:26:55;;;;;;;1.92;1.17;;;24.40;66.20;;;;;;5065853;28;20035;-45
2021/07/13 09:29:28;;;;;;;1.88;1.15;;;24.40;66.30;;;;;;5056868;28;20037;-44
2021/07/13 09:31:55;;;;;;;2.95;1.00;;;24.40;66.30;;;;;;5070872;28;20059;-45
2021/07/13 09:34:20;;;;;;;3.17;1.10;;;24.30;66.30;;;;;;5058265;28;20025;-52
2021/07/13 09:36:53;;;;;;;2.00;0.90;;;24.30;66.20;;;;;;5068454;28;20039;-46
2021/07/13 09:39:26;;;;;;;2.33;0.90;;;24.40;66.10;;;;;;5055479;28;20117;-45
2021/07/13 09:41:53;;;;;;;1.88;1.00;;;24.30;66.00;;;;;;5068828;28;20032;-49
2021/07/13 09:44:24;;;;;;;1.88;1.00;;;24.30;66.00;;;;;;5062614;28;20043;-45
2021/07/13 09:46:51;;;;;;;2.38;1.00;;;24.30;65.80;;;;;;5049882;28;20021;-44
2021/07/13 09:49:22;;;;;;;1.05;0.70;;;24.30;65.90;;;;;;5062790;28;20051;-44
2021/07/13 09:52:04;;;;;;;5.88;1.15;;;24.30;65.90;;;;;;5074091;28;20020;-46
2021/07/13 09:54:46;;;;;;;2.40;0.95;;;24.30;65.70;;;;;;5090792;28;20489;-50
2021/07/13 09:57:19;;;;;;;1.33;0.77;;;24.30;65.80;;;;;;5091627;28;20380;-48
2021/07/13 09:59:50;;;;;;;2.83;0.80;;;24.30;65.60;;;;;;5085523;28;20136;-47
2021/07/13 10:02:18;;;;;;;1.13;0.60;;;24.30;65.50;;;;;;5063267;28;20052;-63
2021/07/13 10:04:46;;;;;;;2.10;0.70;;;24.20;65.30;;;;;;5054505;28;20056;-45
2021/07/13 10:07:15;;;;;;;0.90;0.60;;;24.20;65.10;;;;;;5063395;28;20025;-44
2021/07/13 10:09:49;;;;;;;3.03;0.77;;;24.30;65.10;;;;;;5064581;28;20028;-44
2021/07/13 10:12:23;;;;;;;2.78;0.70;;;24.30;64.90;;;;;;5060623;28;20036;-48
2021/07/13 10:14:55;;;;;;;4.68;0.90;;;24.30;64.70;;;;;;5070669;28;20040;-44
2021/07/13 10:17:24;;;;;;;3.47;0.70;;;24.30;64.60;;;;;;5071576;28;20731;-45
2021/07/13 10:19:53;;;;;;;5.82;0.65;;;24.30;64.60;;;;;;5090593;28;20059;-47
2021/07/13 10:22:22;;;;;;;2.97;0.52;;;24.30;64.50;;;;;;5091152;28;20055;-47
2021/07/13 10:24:50;;;;;;;3.85;0.70;;;24.30;64.50;;;;;;5090635;28;20476;-44
2021/07/13 10:27:30;;;;;;;4.30;0.70;;;24.30;64.70;;;;;;5091365;28;20068;-45
2021/07/13 10:29:58;;;;;;;4.07;1.33;;;24.20;64.20;;;;;;5061384;28;20033;-46
2021/07/13 10:32:23;;;;;;;3.10;0.60;;;24.30;64.90;;;;;;5075856;28;20068;-45
2021/07/13 10:35:01;;;;;;;1.77;0.70;;;24.20;64.10;;;;;;5068241;28;20056;-45
2021/07/13 10:37:28;;;;;;;2.25;0.43;;;24.30;63.90;;;;;;5074279;28;20481;-44
2021/07/13 10:39:57;;;;;;;2.40;0.52;;;24.40;64.00;;;;;;5077302;28;20133;-45
2021/07/13 10:42:44;;;;;;;1.67;0.63;;;24.30;64.00;;;;;;5086479;28;20107;-48
2021/07/13 10:45:24;;;;;;;1.67;0.98;;;24.20;64.20;;;;;;5083241;28;20020;-46
2021/07/13 10:48:03;;;;;;;3.00;0.82;;;24.20;64.20;;;;;;5092226;28;20020;-46
2021/07/13 10:50:29;;;;;;;1.77;0.60;;;24.20;64.20;;;;;;5074502;28;20078;-44
2021/07/13 10:53:26;;;;;;;1.48;0.50;;;24.20;64.20;;;;;;5073250;28;20040;-46
2021/07/13 10:55:54;;;;;;;1.70;0.40;;;24.20;64.00;;;;;;5047043;28;20414;-44
2021/07/13 10:58:46;;;;;;;2.67;0.50;;;24.20;63.70;;;;;;5074156;28;20033;-44
2021/07/13 11:01:23;;;;;;;2.85;0.50;;;24.10;63.60;;;;;;5074012;28;20076;-44
2021/07/13 11:03:59;;;;;;;0.65;0.30;;;24.20;63.50;;;;;;5069869;28;20112;-48
2021/07/13 11:06:42;;;;;;;0.75;0.50;;;24.10;63.40;;;;;;5062839;28;20028;-44
2021/07/13 11:09:29;;;;;;;1.05;0.40;;;24.10;63.10;;;;;;5073684;28;20039;-51
2021/07/13 11:12:09;;;;;;;2.00;0.40;;;24.10;63.20;;;;;;5040849;28;20028;-44
2021/07/13 11:14:53;;;;;;;1.80;0.50;;;24.10;63.00;;;;;;5055066;28;20040;-63
2021/07/13 11:17:21;;;;;;;0.43;0.28;;;24.10;63.10;;;;;;5056098;28;20029;-48
2021/07/13 11:19:46;;;;;;;1.50;0.50;;;24.20;63.80;;;;;;5038168;28;20037;-44
2021/07/13 11:22:16;;;;;;;3.95;0.60;;;24.20;63.60;;;;;;5062468;28;20032;-47
2021/07/13 11:24:42;;;;;;;0.95;0.47;;;24.20;64.30;;;;;;5058899;28;20047;-44
2021/07/13 11:27:08;;;;;;;2.53;0.60;;;24.20;63.90;;;;;;5059817;28;20470;-47
2021/07/13 11:29:34;;;;;;;0.47;0.38;;;24.20;63.60;;;;;;5072701;28;20033;-45
2021/07/13 11:32:03;;;;;;;2.95;0.38;;;24.30;63.60;;;;;;5069855;28;20032;-44
2021/07/13 11:34:37;;;;;;;0.77;0.30;;;24.20;63.60;;;;;;5074958;28;20035;-44
2021/07/13 11:37:05;;;;;;;0.85;0.60;;;24.20;63.50;;;;;;5063308;28;20029;-44
2021/07/13 11:39:36;;;;;;;1.67;0.30;;;24.20;63.40;;;;;;5066322;28;20064;-44
2021/07/13 11:42:06;;;;;;;0.47;0.40;;;24.20;63.40;;;;;;5066983;28;20028;-44
2021/07/13 11:44:36;;;;;;;0.68;0.40;;;24.20;63.30;;;;;;5036550;28;20059;-45
2021/07/13 11:47:02;;;;;;;0.70;0.30;;;24.20;63.10;;;;;;5067754;28;20033;-44
2021/07/13 11:49:33;;;;;;;0.88;0.40;;;24.20;63.30;;;;;;5071354;28;20100;-44
2021/07/13 11:52:04;;;;;;;1.42;0.50;;;24.30;63.20;;;;;;5070480;28;20086;-45
2021/07/13 11:54:35;;;;;;;0.50;0.30;;;24.30;63.00;;;;;;5056014;28;20041;-44
2021/07/13 11:57:04;;;;;;;0.90;0.60;;;24.30;62.90;;;;;;5058643;28;20055;-44
2021/07/13 11:59:31;;;;;;;1.75;0.40;;;24.30;62.80;;;;;;5068526;28;20033;-47
2021/07/13 12:02:04;;;;;;;1.58;0.30;;;24.40;62.90;;;;;;5061093;28;20036;-44
2021/07/13 12:04:35;;;;;;;2.72;0.77;;;24.40;63.00;;;;;;5059910;28;20032;-44
2021/07/13 12:07:02;;;;;;;4.03;0.77;;;24.40;63.00;;;;;;5061668;28;20028;-44
2021/07/13 12:09:30;;;;;;;0.98;0.47;;;24.40;63.00;;;;;;5068650;28;20032;-44
2021/07/13 12:12:17;;;;;;;1.55;0.40;;;24.40;63.10;;;;;;5056560;28;20028;-44
2021/07/13 12:14:51;;;;;;;0.40;0.40;;;24.40;63.00;;;;;;5058778;28;20033;-45
2021/07/13 12:17:20;;;;;;;1.75;0.32;;;24.40;62.90;;;;;;5054285;28;20044;-50
2021/07/13 12:19:47;;;;;;;0.70;0.30;;;24.40;62.90;;;;;;5066991;28;20035;-44
2021/07/13 12:22:18;;;;;;;2.05;0.60;;;24.40;62.80;;;;;;5058122;28;20020;-44
2021/07/13 12:24:46;;;;;;;;;;;24.40;62.90;;;;;;5070332;28;20381;-44
2021/07/13 12:27:13;;;;;;;1.02;0.30;;;24.40;62.80;;;;;;5062634;28;19940;-43
2021/07/13 12:29:43;;;;;;;1.83;0.60;;;24.40;62.60;;;;;;5060505;28;20371;-65
2021/07/13 12:32:25;;;;;;;0.52;0.30;;;24.40;62.70;;;;;;5061445;28;20036;-44
2021/07/13 12:34:52;;;;;;;1.10;0.40;;;24.40;62.60;;;;;;5064630;28;20107;-45
2021/07/13 12:37:20;;;;;;;0.98;0.32;;;24.50;63.20;;;;;;5066310;28;20051;-50
2021/07/13 12:40:01;;;;;;;0.77;0.40;;;24.50;62.80;;;;;;5071329;28;20040;-49
2021/07/13 12:42:28;;;;;;;2.28;0.60;;;24.50;62.80;;;;;;5072592;28;20111;-45
2021/07/13 12:44:57;;;;;;;0.82;0.50;;;24.50;62.70;;;;;;5070284;28;20389;-46
2021/07/13 12:47:26;;;;;;;0.40;0.30;;;24.50;62.60;;;;;;5070913;28;20115;-49
2021/07/13 12:50:01;;;;;;;0.75;0.50;;;24.40;62.60;;;;;;5073471;28;20028;-45
2021/07/13 12:52:47;;;;;;;2.00;0.38;;;24.50;62.50;;;;;;5071625;28;20397;-44
2021/07/13 12:55:23;;;;;;;1.15;0.40;;;24.40;62.50;;;;;;5059603;28;20052;-43